createdAt,value
2023-05-03T00:02:05.167Z,73.62
2023-05-03T00:04:31.878Z,82.66
2023-05-03T00:06:58.525Z,69.63
2023-05-03T00:09:25.171Z,76.59
2023-05-03T00:11:51.920Z,75.71
2023-05-03T00:14:18.512Z,75.40
2023-05-03T00:16:45.319Z,75.48
2023-05-03T00:19:24.346Z,75.83
2023-05-03T00:21:57.467Z,75.70
2023-05-03T00:24:24.106Z,75.21
2023-05-03T00:26:50.781Z,75.40
2023-05-03T00:29:18.894Z,75.34
2023-05-03T00:31:45.687Z,75.08
2023-05-03T00:34:14.001Z,70.73
2023-05-03T00:36:40.716Z,72.44
2023-05-03T00:39:07.315Z,76.21
2023-05-03T00:41:35.215Z,75.35
2023-05-03T00:44:01.804Z,75.37
2023-05-03T00:46:29.394Z,75.10
2023-05-03T00:48:56.278Z,74.70
2023-05-03T00:51:27.714Z,74.74
2023-05-03T00:53:54.390Z,74.55
2023-05-03T00:56:21.274Z,74.99
2023-05-03T00:58:47.878Z,74.96
2023-05-03T01:01:15.471Z,74.85
2023-05-03T01:03:43.030Z,74.20
2023-05-03T01:06:17.989Z,74.32
2023-05-03T01:08:50.760Z,72.88
2023-05-03T01:11:22.927Z,69.34
2023-05-03T01:13:54.985Z,67.90
2023-05-03T01:16:30.946Z,74.11
2023-05-03T01:19:01.624Z,70.85
2023-05-03T01:21:30.967Z,76.43
2023-05-03T01:24:11.530Z,77.53
2023-05-03T01:26:39.548Z,78.11
2023-05-03T01:29:06.958Z,81.87
2023-05-03T01:31:39.363Z,80.42
2023-05-03T01:34:18.969Z,77.79
2023-05-03T01:36:46.472Z,77.24
2023-05-03T01:39:18.300Z,76.28
2023-05-03T01:41:49.889Z,75.72
2023-05-03T01:44:17.118Z,75.68
2023-05-03T01:46:44.364Z,75.56
2023-05-03T01:49:11.349Z,75.51
2023-05-03T01:51:38.476Z,74.64
2023-05-03T01:54:06.115Z,75.33
2023-05-03T01:56:35.774Z,75.22
2023-05-03T01:59:03.775Z,75.15
2023-05-03T02:01:30.492Z,75.55
2023-05-03T02:03:57.207Z,75.55
2023-05-03T02:06:24.346Z,75.75
2023-05-03T02:08:51.026Z,75.00
2023-05-03T02:11:17.711Z,75.07
2023-05-03T02:13:44.356Z,75.12
2023-05-03T02:16:12.407Z,75.82
2023-05-03T02:18:39.045Z,75.33
2023-05-03T02:21:06.777Z,75.73
2023-05-03T02:23:33.380Z,75.32
2023-05-03T02:25:59.971Z,74.84
2023-05-03T02:28:26.685Z,78.76
2023-05-03T02:30:53.954Z,76.82
2023-05-03T02:33:22.320Z,71.72
2023-05-03T02:35:48.924Z,70.51
2023-05-03T02:38:15.689Z,80.30
2023-05-03T02:40:42.260Z,77.84
2023-05-03T02:43:09.412Z,75.90
2023-05-03T02:45:36.719Z,75.67
2023-05-03T02:48:03.717Z,75.08
2023-05-03T02:50:31.688Z,75.02
2023-05-03T02:52:58.290Z,74.57
2023-05-03T02:55:25.122Z,74.97
2023-05-03T02:57:51.697Z,74.78
2023-05-03T03:00:18.788Z,74.74
2023-05-03T03:02:45.483Z,75.11
2023-05-03T03:05:12.225Z,74.76
2023-05-03T03:07:40.353Z,73.72
2023-05-03T03:10:08.080Z,75.18
2023-05-03T03:12:35.910Z,75.22
2023-05-03T03:15:03.778Z,75.14
2023-05-03T03:17:31.208Z,74.73
2023-05-03T03:19:58.420Z,75.56
2023-05-03T03:22:27.971Z,75.28
2023-05-03T03:24:55.897Z,74.18
2023-05-03T03:27:24.022Z,74.60
2023-05-03T03:29:50.803Z,74.65
2023-05-03T03:32:17.440Z,74.59
2023-05-03T03:34:44.087Z,75.01
2023-05-03T03:37:11.181Z,74.92
2023-05-03T03:39:39.991Z,75.21
2023-05-03T03:42:11.024Z,74.86
2023-05-03T03:44:37.580Z,75.07
2023-05-03T03:47:04.264Z,66.93
2023-05-03T03:49:30.870Z,80.48
2023-05-03T03:51:57.983Z,79.45
2023-05-03T03:54:24.555Z,77.16
2023-05-03T03:56:52.347Z,75.59
2023-05-03T03:59:20.330Z,75.85
2023-05-03T04:01:47.069Z,75.66
2023-05-03T04:04:13.847Z,75.63
2023-05-03T04:06:41.052Z,76.26
2023-05-03T04:09:07.717Z,75.81
2023-05-03T04:11:34.732Z,75.39
2023-05-03T04:14:02.725Z,75.76
2023-05-03T04:16:30.759Z,75.39
2023-05-03T04:18:57.396Z,75.34
2023-05-03T04:21:24.028Z,75.55
2023-05-03T04:23:50.627Z,75.91
2023-05-03T04:26:30.142Z,76.31
2023-05-03T04:28:58.323Z,72.70
2023-05-03T04:31:25.825Z,75.93
2023-05-03T04:33:53.916Z,73.71
2023-05-03T04:36:25.443Z,79.66
2023-05-03T04:38:52.330Z,77.03
2023-05-03T04:41:19.022Z,75.72
2023-05-03T04:43:45.822Z,76.07
2023-05-03T04:46:12.465Z,76.44
2023-05-03T04:48:39.183Z,75.47
2023-05-03T04:51:07.678Z,75.56
2023-05-03T04:53:34.442Z,74.44
2023-05-03T04:56:01.240Z,75.91
2023-05-03T04:58:28.077Z,75.13
2023-05-03T05:00:54.699Z,76.88
2023-05-03T05:03:21.438Z,72.30
2023-05-03T05:05:48.163Z,77.23
2023-05-03T05:08:16.168Z,79.17
2023-05-03T05:10:43.221Z,85.52
2023-05-03T05:13:10.002Z,81.30
2023-05-03T05:15:36.710Z,86.68
2023-05-03T05:18:03.372Z,86.83
2023-05-03T05:20:30.083Z,89.00
2023-05-03T05:22:56.803Z,89.54
2023-05-03T05:25:24.802Z,85.61
2023-05-03T05:27:51.446Z,83.81
2023-05-03T05:30:18.214Z,85.10
2023-05-03T05:32:44.949Z,79.87
2023-05-03T05:35:11.614Z,75.30
2023-05-03T05:37:38.406Z,73.76
2023-05-03T05:40:07.803Z,81.67
2023-05-03T05:42:35.967Z,80.54
2023-05-03T05:45:02.669Z,79.98
2023-05-03T05:47:29.546Z,86.08
2023-05-03T05:49:56.556Z,85.94
2023-05-03T05:52:23.258Z,87.84
2023-05-03T05:54:50.194Z,85.90
2023-05-03T05:57:17.022Z,85.80
2023-05-03T05:59:45.088Z,83.68
2023-05-03T06:02:17.034Z,83.54
2023-05-03T06:04:46.791Z,85.28
2023-05-03T06:07:14.596Z,86.41
2023-05-03T06:09:41.477Z,88.80
2023-05-03T06:12:08.385Z,87.99
2023-05-03T06:14:35.005Z,82.77
2023-05-03T06:17:04.066Z,80.13
2023-05-03T06:19:30.837Z,82.90
2023-05-03T06:21:57.834Z,87.68
2023-05-03T06:24:24.535Z,85.16
2023-05-03T06:26:51.220Z,84.72
2023-05-03T06:29:18.231Z,84.51
2023-05-03T06:31:45.116Z,86.90
2023-05-03T06:34:13.273Z,81.35
2023-05-03T06:36:39.866Z,78.58
2023-05-03T06:39:06.566Z,80.78
2023-05-03T06:41:33.972Z,85.12
2023-05-03T06:44:00.623Z,85.46
2023-05-03T06:46:27.819Z,87.46
2023-05-03T06:48:57.826Z,85.50
2023-05-03T06:51:28.362Z,80.68
2023-05-03T06:53:56.293Z,80.62
2023-05-03T06:56:23.799Z,82.89
2023-05-03T06:58:50.674Z,85.07
2023-05-03T07:01:19.110Z,81.84
2023-05-03T07:03:45.966Z,85.55
2023-05-03T07:06:12.906Z,83.70
2023-05-03T07:08:40.913Z,84.20
2023-05-03T07:11:07.567Z,86.37
2023-05-03T07:13:34.191Z,83.01
2023-05-03T07:16:03.393Z,83.99
2023-05-03T07:18:30.364Z,86.02
2023-05-03T07:20:57.234Z,82.33
2023-05-03T07:23:23.871Z,84.62
2023-05-03T07:25:53.966Z,85.00
2023-05-03T07:28:20.623Z,83.41
2023-05-03T07:30:47.352Z,80.54
2023-05-03T07:33:14.211Z,80.80
2023-05-03T07:35:40.970Z,80.65
2023-05-03T07:38:07.689Z,74.79
2023-05-03T07:40:34.354Z,75.71
2023-05-03T07:43:03.177Z,76.00
2023-05-03T07:45:29.922Z,79.89
2023-05-03T07:47:57.054Z,82.94
2023-05-03T07:50:23.823Z,77.95
2023-05-03T07:52:53.237Z,81.08
2023-05-03T07:55:20.466Z,76.75
2023-05-03T07:57:47.103Z,76.71
2023-05-03T08:00:17.720Z,75.29
2023-05-03T08:02:44.551Z,73.00
2023-05-03T08:05:14.624Z,74.86
2023-05-03T08:07:42.058Z,71.64
2023-05-03T08:10:09.366Z,76.80
2023-05-03T08:12:36.300Z,75.95
2023-05-03T08:15:07.108Z,73.09
2023-05-03T08:17:40.281Z,69.83
2023-05-03T08:20:08.457Z,70.15
2023-05-03T08:22:37.550Z,71.08
2023-05-03T08:25:04.928Z,70.40
2023-05-03T08:27:31.744Z,69.50
2023-05-03T08:29:58.487Z,68.02
2023-05-03T08:32:26.059Z,71.75
2023-05-03T08:34:54.507Z,73.63
2023-05-03T08:37:21.324Z,70.45
2023-05-03T08:39:48.306Z,75.90
2023-05-03T08:42:15.198Z,72.35
2023-05-03T08:44:46.183Z,67.63
2023-05-03T08:47:14.364Z,67.47
2023-05-03T08:49:42.587Z,76.13
2023-05-03T08:52:12.319Z,77.35
2023-05-03T08:54:38.877Z,79.01
2023-05-03T08:57:10.712Z,75.45
2023-05-03T08:59:47.130Z,76.46
2023-05-03T09:02:14.724Z,74.07
2023-05-03T09:04:41.413Z,75.18
2023-05-03T09:07:08.672Z,74.57
2023-05-03T09:09:36.857Z,76.02
2023-05-03T09:12:04.177Z,76.27
2023-05-03T09:14:30.885Z,75.10
2023-05-03T09:17:14.343Z,73.58
2023-05-03T09:19:50.585Z,69.10
2023-05-03T09:22:17.292Z,72.07
2023-05-03T09:24:53.663Z,75.27
2023-05-03T09:27:21.560Z,71.34
2023-05-03T09:29:49.143Z,71.05
2023-05-03T09:32:17.039Z,72.90
2023-05-03T09:34:44.880Z,71.38
2023-05-03T09:37:13.974Z,75.96
2023-05-03T09:39:41.633Z,70.73
2023-05-03T09:42:14.398Z,71.08
2023-05-03T09:44:42.631Z,72.32
2023-05-03T09:47:10.069Z,76.17
2023-05-03T09:49:37.720Z,71.51
2023-05-03T09:52:06.379Z,70.02
2023-05-03T09:54:35.329Z,70.22
2023-05-03T09:57:04.641Z,70.64
2023-05-03T09:59:33.621Z,71.64
2023-05-03T10:02:03.093Z,71.18
2023-05-03T10:04:43.669Z,69.33
2023-05-03T10:07:14.254Z,70.37
2023-05-03T10:09:44.332Z,74.24
2023-05-03T10:12:12.800Z,65.22
2023-05-03T10:14:43.286Z,66.34
2023-05-03T10:17:16.753Z,77.03
2023-05-03T10:19:50.653Z,79.00
2023-05-03T10:22:17.446Z,74.23
2023-05-03T10:25:08.270Z,77.59
2023-05-03T10:27:42.623Z,78.80
2023-05-03T10:30:28.692Z,77.38
2023-05-03T10:32:55.828Z,78.31
2023-05-03T10:35:26.752Z,78.72
2023-05-03T10:37:54.218Z,64.10
2023-05-03T10:40:22.318Z,65.75
2023-05-03T10:42:51.260Z,62.68
2023-05-03T10:45:25.839Z,61.93
2023-05-03T10:48:20.511Z,61.23
2023-05-03T10:50:47.862Z,63.13
2023-05-03T10:53:37.485Z,70.80
2023-05-03T10:56:07.196Z,74.61
2023-05-03T10:58:36.561Z,75.69
2023-05-03T11:01:06.423Z,76.19
2023-05-03T11:03:44.685Z,77.26
2023-05-03T11:06:27.704Z,76.09
2023-05-03T11:08:54.347Z,63.11
2023-05-03T11:11:21.573Z,61.48
2023-05-03T11:13:50.596Z,58.61
2023-05-03T11:16:18.759Z,62.22
2023-05-03T11:18:46.284Z,58.82
2023-05-03T11:21:13.326Z,72.43
2023-05-03T11:23:40.243Z,56.52
2023-05-03T11:26:07.356Z,56.50
2023-05-03T11:28:33.971Z,58.22
2023-05-03T11:31:02.082Z,54.44
2023-05-03T11:33:31.154Z,63.59
2023-05-03T11:35:57.812Z,54.00
2023-05-03T11:38:24.549Z,52.52
2023-05-03T11:40:51.699Z,55.99
2023-05-03T11:43:18.377Z,53.42
2023-05-03T11:45:46.434Z,55.65
2023-05-03T11:48:14.351Z,57.67
2023-05-03T11:50:47.067Z,54.42
2023-05-03T11:53:14.614Z,59.40
2023-05-03T11:55:43.130Z,57.43
2023-05-03T11:58:13.519Z,57.23
2023-05-03T12:00:43.867Z,56.75
2023-05-03T12:03:11.088Z,55.25
2023-05-03T12:05:37.994Z,57.44
2023-05-03T12:08:06.909Z,60.54
2023-05-03T12:10:35.536Z,61.57
2023-05-03T12:13:04.866Z,58.05
2023-05-03T12:15:34.291Z,57.00
2023-05-03T12:18:04.713Z,55.75
2023-05-03T12:23:04.185Z,58.73
2023-05-03T12:25:34.415Z,56.17
2023-05-03T12:28:18.545Z,57.24
2023-05-03T12:30:46.784Z,55.16
2023-05-03T12:33:15.815Z,56.42
2023-05-03T12:35:46.678Z,53.59
2023-05-03T12:38:16.486Z,59.70
2023-05-03T12:40:48.603Z,66.52
2023-05-03T12:43:16.065Z,61.05
2023-05-03T12:45:46.914Z,55.75
2023-05-03T12:48:19.166Z,57.38
2023-05-03T12:50:46.117Z,55.32
2023-05-03T12:53:16.656Z,56.11
2023-05-03T12:55:51.057Z,58.11
2023-05-03T13:01:27.023Z,59.70
2023-05-03T13:03:43.129Z,55.73
2023-05-03T13:06:13.928Z,70.21
2023-05-03T13:08:49.508Z,54.26
2023-05-03T13:11:21.524Z,57.40
2023-05-03T13:13:48.399Z,55.49
2023-05-03T13:16:15.133Z,56.44
2023-05-03T13:18:42.871Z,55.23
2023-05-03T13:21:10.042Z,57.71
2023-05-03T13:23:36.659Z,54.81
2023-05-03T13:26:03.346Z,55.37
2023-05-03T13:28:31.814Z,55.24
2023-05-03T13:30:58.513Z,55.34
2023-05-03T13:33:25.247Z,58.11
2023-05-03T13:35:52.016Z,58.58
2023-05-03T13:38:18.586Z,54.38
2023-05-03T13:40:45.503Z,55.28
2023-05-03T13:43:12.103Z,57.58
2023-05-03T13:45:40.189Z,58.32
2023-05-03T13:48:18.004Z,58.45
2023-05-03T13:50:45.946Z,56.78
2023-05-03T13:53:12.618Z,55.14
2023-05-03T13:55:39.206Z,55.97
2023-05-03T13:58:05.864Z,54.28
2023-05-03T14:00:32.561Z,58.09
2023-05-03T14:03:00.873Z,57.81
2023-05-03T14:05:28.194Z,58.32
2023-05-03T14:07:54.908Z,55.11
2023-05-03T14:10:21.527Z,57.68
2023-05-03T14:12:48.210Z,57.56
2023-05-03T14:15:14.995Z,58.69
2023-05-03T14:17:43.603Z,57.91
2023-05-03T14:20:12.683Z,57.53
2023-05-03T14:22:39.260Z,56.61
2023-05-03T14:25:07.190Z,57.48
2023-05-03T14:27:33.898Z,61.09
2023-05-03T14:30:00.804Z,60.06
2023-05-03T14:32:27.844Z,58.64
2023-05-03T14:34:54.439Z,59.04
2023-05-03T14:37:22.773Z,56.53
2023-05-03T14:39:49.347Z,58.04
2023-05-03T14:42:15.947Z,59.01
2023-05-03T14:44:42.553Z,58.10
2023-05-03T14:47:09.419Z,58.80
2023-05-03T14:49:40.580Z,56.71
2023-05-03T14:52:07.664Z,58.41
2023-05-03T14:54:36.142Z,58.03
2023-05-03T14:57:04.297Z,55.02
2023-05-03T14:59:31.779Z,56.42
2023-05-03T15:01:58.419Z,57.27
2023-05-03T15:04:25.360Z,56.77
2023-05-03T15:06:52.371Z,57.98
2023-05-03T15:09:18.980Z,59.04
2023-05-03T15:11:47.032Z,59.45
2023-05-03T15:14:13.624Z,56.98
2023-05-03T15:16:40.494Z,56.71
2023-05-03T15:19:07.410Z,56.14
2023-05-03T15:21:44.816Z,57.43
2023-05-03T15:24:11.358Z,58.29
2023-05-03T15:26:37.913Z,57.27
2023-05-03T15:29:06.287Z,55.01
2023-05-03T15:31:33.053Z,57.70
2023-05-03T15:34:01.253Z,56.07
2023-05-03T15:36:29.302Z,56.42
2023-05-03T15:38:56.368Z,56.51
2023-05-03T15:41:23.471Z,54.96
2023-05-03T15:43:50.082Z,53.95
2023-05-03T15:46:18.041Z,52.82
2023-05-03T15:48:44.656Z,53.77
2023-05-03T15:51:11.310Z,53.71
2023-05-03T15:53:38.348Z,53.78
2023-05-03T15:56:05.473Z,55.39
2023-05-03T15:58:32.315Z,57.62
2023-05-03T16:00:59.388Z,59.21
2023-05-03T16:03:28.664Z,59.34
2023-05-03T16:05:56.479Z,59.43
2023-05-03T16:08:23.216Z,60.25
2023-05-03T16:10:49.996Z,59.49
2023-05-03T16:13:16.730Z,60.33
2023-05-03T16:15:43.836Z,60.00
2023-05-03T16:18:10.524Z,59.62
2023-05-03T16:20:38.747Z,60.93
2023-05-03T16:23:05.356Z,60.69
2023-05-03T16:25:32.614Z,59.87
2023-05-03T16:27:59.527Z,62.76
2023-05-03T16:30:26.724Z,61.58
2023-05-03T16:32:53.643Z,62.60
2023-05-03T16:35:20.339Z,62.12
2023-05-03T16:37:50.439Z,61.80
2023-05-03T16:40:17.357Z,60.25
2023-05-03T16:42:43.973Z,61.29
2023-05-03T16:45:11.727Z,60.68
2023-05-03T16:47:39.115Z,60.78
2023-05-03T16:50:07.899Z,63.34
2023-05-03T16:52:38.811Z,64.08
2023-05-03T16:55:08.999Z,61.95
2023-05-03T16:57:36.570Z,61.44
2023-05-03T17:00:08.487Z,62.06
2023-05-03T17:02:35.860Z,62.06
2023-05-03T17:05:05.091Z,62.20
2023-05-03T17:07:32.026Z,62.66
2023-05-03T17:09:58.919Z,63.25
2023-05-03T17:12:27.010Z,63.90
2023-05-03T17:14:53.762Z,62.74
2023-05-03T17:17:21.552Z,64.04
2023-05-03T17:19:48.217Z,63.05
2023-05-03T17:22:15.015Z,62.84
2023-05-03T17:24:41.847Z,64.50
2023-05-03T17:27:08.832Z,67.12
2023-05-03T17:29:37.013Z,65.42
2023-05-03T17:32:04.188Z,69.62
2023-05-03T17:34:30.986Z,66.03
2023-05-03T17:36:58.983Z,70.98
2023-05-03T17:39:25.711Z,64.88
2023-05-03T17:41:52.314Z,71.05
2023-05-03T17:44:18.879Z,65.84
2023-05-03T17:46:46.853Z,72.00
2023-05-03T17:49:13.442Z,71.57
2023-05-03T17:51:40.073Z,72.27
2023-05-03T17:54:06.627Z,72.47
2023-05-03T17:56:33.257Z,70.75
2023-05-03T17:58:59.802Z,73.27
2023-05-03T18:01:27.625Z,69.82
2023-05-03T18:03:55.826Z,72.80
2023-05-03T18:06:22.567Z,72.70
2023-05-03T18:08:49.206Z,73.17
2023-05-03T18:11:16.025Z,73.60
2023-05-03T18:13:42.708Z,73.31
2023-05-03T18:16:09.777Z,73.11
2023-05-03T18:18:36.889Z,73.56
2023-05-03T18:21:05.972Z,72.95
2023-05-03T18:23:33.301Z,73.30
2023-05-03T18:26:00.227Z,73.38
2023-05-03T18:28:27.535Z,73.53
2023-05-03T18:30:55.896Z,72.94
2023-05-03T18:33:22.859Z,73.38
2023-05-03T18:35:50.184Z,73.09
2023-05-03T18:38:19.151Z,73.37
2023-05-03T18:40:46.067Z,72.88
2023-05-03T18:43:12.738Z,72.92
2023-05-03T18:45:40.077Z,73.40
2023-05-03T18:48:07.229Z,72.79
2023-05-03T18:50:35.006Z,73.51
2023-05-03T18:53:01.637Z,73.14
2023-05-03T18:55:29.661Z,72.81
2023-05-03T18:57:56.313Z,72.49
2023-05-03T19:00:23.026Z,72.45
2023-05-03T19:02:49.663Z,72.56
2023-05-03T19:05:16.710Z,72.77
2023-05-03T19:07:46.633Z,73.32
2023-05-03T19:10:13.684Z,72.84
2023-05-03T19:12:42.738Z,73.38
2023-05-03T19:15:10.888Z,73.35
2023-05-03T19:17:40.233Z,72.85
2023-05-03T19:20:08.127Z,73.05
2023-05-03T19:22:34.781Z,65.71
2023-05-03T19:25:02.871Z,73.24
2023-05-03T19:27:31.522Z,63.13
2023-05-03T19:29:59.515Z,64.71
2023-05-03T19:32:26.226Z,73.04
2023-05-03T19:34:52.892Z,72.84
2023-05-03T19:37:19.683Z,72.35
2023-05-03T19:39:46.479Z,72.51
2023-05-03T19:42:13.138Z,72.36
2023-05-03T19:44:39.847Z,73.19
2023-05-03T19:47:08.617Z,73.26
2023-05-03T19:49:35.462Z,72.94
2023-05-03T19:52:04.471Z,72.55
2023-05-03T19:54:31.179Z,73.17
2023-05-03T19:56:57.854Z,72.50
2023-05-03T19:59:24.457Z,72.35
2023-05-03T20:01:51.099Z,72.46
2023-05-03T20:04:19.115Z,72.53
2023-05-03T20:06:45.812Z,72.31
2023-05-03T20:09:12.836Z,72.64
2023-05-03T20:11:39.670Z,72.66
2023-05-03T20:14:07.292Z,72.66
2023-05-03T20:16:38.924Z,73.17
2023-05-03T20:19:05.728Z,72.65
2023-05-03T20:21:33.682Z,72.70
2023-05-03T20:24:00.254Z,72.19
2023-05-03T20:26:26.796Z,72.67
2023-05-03T20:28:53.341Z,72.91
2023-05-03T20:31:19.922Z,73.14
2023-05-03T20:33:46.668Z,72.23
2023-05-03T20:36:14.313Z,72.94
2023-05-03T20:38:42.328Z,73.14
2023-05-03T20:41:08.875Z,72.75
2023-05-03T20:43:35.466Z,72.33
2023-05-03T20:46:02.052Z,72.36
2023-05-03T20:48:28.822Z,72.73
2023-05-03T20:50:55.519Z,72.19
2023-05-03T20:53:22.076Z,72.58
2023-05-03T20:55:55.028Z,71.98
2023-05-03T20:58:21.611Z,72.19
2023-05-03T21:00:48.281Z,72.68
2023-05-03T21:03:15.413Z,72.63
2023-05-03T21:05:42.106Z,71.99
2023-05-03T21:08:08.701Z,72.30
2023-05-03T21:10:35.324Z,72.80
2023-05-03T21:13:03.622Z,72.46
2023-05-03T21:15:30.306Z,72.48
2023-05-03T21:17:57.012Z,72.00
2023-05-03T21:20:23.692Z,72.80
2023-05-03T21:22:50.302Z,72.83
2023-05-03T21:25:16.929Z,72.67
2023-05-03T21:27:43.590Z,72.55
2023-05-03T21:30:13.643Z,72.34
2023-05-03T21:32:40.263Z,70.95
2023-05-03T21:35:09.184Z,69.33
2023-05-03T21:37:35.837Z,71.98
2023-05-03T21:40:03.176Z,72.56
2023-05-03T21:42:30.068Z,72.02
2023-05-03T21:44:56.653Z,72.47
2023-05-03T21:47:24.738Z,72.50
2023-05-03T21:49:51.554Z,71.57
2023-05-03T21:52:18.252Z,72.24
2023-05-03T21:54:44.927Z,72.14
2023-05-03T21:57:11.525Z,71.76
2023-05-03T21:59:38.260Z,71.75
2023-05-03T22:02:05.050Z,72.06
2023-05-03T22:04:33.096Z,69.39
2023-05-03T22:06:59.744Z,72.12
2023-05-03T22:09:26.269Z,72.01
2023-05-03T22:11:52.922Z,72.02
2023-05-03T22:14:19.451Z,72.03
2023-05-03T22:16:46.043Z,71.34
2023-05-03T22:19:13.273Z,71.77
2023-05-03T22:21:41.517Z,71.62
2023-05-03T22:24:08.606Z,72.15
2023-05-03T22:26:35.704Z,66.05
2023-05-03T22:29:02.357Z,72.15
2023-05-03T22:31:30.282Z,72.17
2023-05-03T22:33:57.016Z,73.80
2023-05-03T22:36:23.807Z,72.46
2023-05-03T22:38:55.149Z,72.03
2023-05-03T22:41:22.140Z,72.25
2023-05-03T22:43:48.674Z,71.78
2023-05-03T22:46:15.300Z,71.93
2023-05-03T22:48:41.915Z,72.12
2023-05-03T22:51:08.965Z,71.86
2023-05-03T22:53:35.517Z,72.17
2023-05-03T22:56:04.583Z,76.57
2023-05-03T22:58:31.216Z,73.30
2023-05-03T23:00:58.363Z,71.81
2023-05-03T23:03:25.348Z,71.86
2023-05-03T23:05:53.170Z,71.85
2023-05-03T23:08:21.212Z,72.09
2023-05-03T23:10:47.876Z,68.84
2023-05-03T23:13:16.539Z,71.74
2023-05-03T23:15:43.215Z,71.96
2023-05-03T23:18:09.890Z,58.52
2023-05-03T23:20:36.586Z,78.66
2023-05-03T23:23:03.242Z,74.68
2023-05-03T23:25:29.811Z,72.49
2023-05-03T23:27:56.638Z,72.13
2023-05-03T23:30:25.227Z,71.97
2023-05-03T23:32:52.492Z,72.33
2023-05-03T23:35:20.823Z,72.44
2023-05-03T23:37:47.484Z,71.90
2023-05-03T23:40:14.241Z,72.03
2023-05-03T23:42:41.405Z,71.34
2023-05-03T23:45:08.728Z,60.97
2023-05-03T23:47:36.944Z,79.06
2023-05-03T23:50:04.194Z,73.40
2023-05-03T23:52:31.221Z,77.41
2023-05-03T23:54:57.792Z,74.75
2023-05-03T23:57:24.628Z,72.60
2023-05-03T23:59:51.217Z,72.08
